sensor_id;sensor_type;location;lat;lon;timestamp;temperature;humidity
20833;DHT22;56075;51.264;7.150;2024-03-02T00:01:21;7.90;99.90
20833;DHT22;56075;51.264;7.150;2024-03-02T00:06:24;7.90;99.90
20833;DHT22;56075;51.264;7.150;2024-03-02T00:08:58;7.80;99.90
20833;DHT22;56075;51.264;7.150;2024-03-02T00:11:29;7.90;99.90
20833;DHT22;56075;51.264;7.150;2024-03-02T00:16:32;7.90;99.90
20833;DHT22;56075;51.264;7.150;2024-03-02T00:19:05;8.00;99.90
20833;DHT22;56075;51.264;7.150;2024-03-02T00:24:21;8.00;99.90
20833;DHT22;56075;51.264;7.150;2024-03-02T00:26:54;7.90;99.90
20833;DHT22;56075;51.264;7.150;2024-03-02T00:29:26;8.00;99.90
20833;DHT22;56075;51.264;7.150;2024-03-02T00:31:58;8.00;99.90
20833;DHT22;56075;51.264;7.150;2024-03-02T00:34:32;8.10;99.90
20833;DHT22;56075;51.264;7.150;2024-03-02T00:37:03;8.00;99.90
20833;DHT22;56075;51.264;7.150;2024-03-02T00:39:35;8.00;99.90
20833;DHT22;56075;51.264;7.150;2024-03-02T00:42:06;8.00;99.90
20833;DHT22;56075;51.264;7.150;2024-03-02T00:44:37;8.10;99.90
20833;DHT22;56075;51.264;7.150;2024-03-02T00:47:09;8.10;99.90
20833;DHT22;56075;51.264;7.150;2024-03-02T00:49:40;8.00;99.90
20833;DHT22;56075;51.264;7.150;2024-03-02T00:52:11;8.30;99.90
20833;DHT22;56075;51.264;7.150;2024-03-02T00:57:15;8.30;99.90
20833;DHT22;56075;51.264;7.150;2024-03-02T01:02:19;8.20;99.90
20833;DHT22;56075;51.264;7.150;2024-03-02T01:07:22;8.20;99.90
20833;DHT22;56075;51.264;7.150;2024-03-02T01:09:53;8.20;99.90
20833;DHT22;56075;51.264;7.150;2024-03-02T01:12:24;8.30;99.90
20833;DHT22;56075;51.264;7.150;2024-03-02T01:14:55;8.40;99.90
20833;DHT22;56075;51.264;7.150;2024-03-02T01:19:58;8.40;99.90
20833;DHT22;56075;51.264;7.150;2024-03-02T01:22:29;8.40;99.90
20833;DHT22;56075;51.264;7.150;2024-03-02T01:25:00;8.50;99.90
20833;DHT22;56075;51.264;7.150;2024-03-02T01:27:31;8.70;99.90
20833;DHT22;56075;51.264;7.150;2024-03-02T01:35:06;8.20;99.90
20833;DHT22;56075;51.264;7.150;2024-03-02T01:37:37;8.80;99.90
20833;DHT22;56075;51.264;7.150;2024-03-02T01:40:09;8.50;99.90
20833;DHT22;56075;51.264;7.150;2024-03-02T01:45:12;8.20;99.90
20833;DHT22;56075;51.264;7.150;2024-03-02T01:47:43;8.60;99.90
20833;DHT22;56075;51.264;7.150;2024-03-02T01:50:15;8.40;99.90
20833;DHT22;56075;51.264;7.150;2024-03-02T01:52:46;8.50;99.90
20833;DHT22;56075;51.264;7.150;2024-03-02T01:55:17;8.40;99.90
20833;DHT22;56075;51.264;7.150;2024-03-02T02:00:22;8.40;99.90
20833;DHT22;56075;51.264;7.150;2024-03-02T02:05:25;8.20;99.90
20833;DHT22;56075;51.264;7.150;2024-03-02T02:07:56;8.40;99.90
20833;DHT22;56075;51.264;7.150;2024-03-02T02:10:29;8.10;99.90
20833;DHT22;56075;51.264;7.150;2024-03-02T02:13:00;8.20;99.90
20833;DHT22;56075;51.264;7.150;2024-03-02T02:15:31;8.10;99.90
20833;DHT22;56075;51.264;7.150;2024-03-02T02:20:37;8.20;99.90
20833;DHT22;56075;51.264;7.150;2024-03-02T02:23:08;8.10;99.90
20833;DHT22;56075;51.264;7.150;2024-03-02T02:25:40;8.20;99.90
20833;DHT22;56075;51.264;7.150;2024-03-02T02:30:43;8.30;99.90
20833;DHT22;56075;51.264;7.150;2024-03-02T02:33:14;8.30;99.90
20833;DHT22;56075;51.264;7.150;2024-03-02T02:38:16;8.40;99.90
20833;DHT22;56075;51.264;7.150;2024-03-02T02:40:48;8.40;99.90
20833;DHT22;56075;51.264;7.150;2024-03-02T02:43:19;8.30;99.90
20833;DHT22;56075;51.264;7.150;2024-03-02T02:45:50;8.30;99.90
20833;DHT22;56075;51.264;7.150;2024-03-02T02:48:21;8.40;99.90
20833;DHT22;56075;51.264;7.150;2024-03-02T02:50:52;8.30;99.90
20833;DHT22;56075;51.264;7.150;2024-03-02T02:53:23;8.40;99.90
20833;DHT22;56075;51.264;7.150;2024-03-02T02:55:54;8.40;99.90
20833;DHT22;56075;51.264;7.150;2024-03-02T02:58:25;8.50;99.90
20833;DHT22;56075;51.264;7.150;2024-03-02T03:00:56;8.40;99.90
20833;DHT22;56075;51.264;7.150;2024-03-02T03:03:27;8.40;99.90
20833;DHT22;56075;51.264;7.150;2024-03-02T03:05:59;8.40;99.90
20833;DHT22;56075;51.264;7.150;2024-03-02T03:08:30;8.40;99.90
20833;DHT22;56075;51.264;7.150;2024-03-02T03:11:01;8.50;99.90
20833;DHT22;56075;51.264;7.150;2024-03-02T03:13:33;8.50;99.90
20833;DHT22;56075;51.264;7.150;2024-03-02T03:16:04;8.70;99.90
20833;DHT22;56075;51.264;7.150;2024-03-02T03:18:36;8.70;99.90
20833;DHT22;56075;51.264;7.150;2024-03-02T03:21:07;8.60;99.90
20833;DHT22;56075;51.264;7.150;2024-03-02T03:23:38;8.70;99.90
20833;DHT22;56075;51.264;7.150;2024-03-02T03:26:09;8.70;99.90
20833;DHT22;56075;51.264;7.150;2024-03-02T03:28:40;8.60;99.90
20833;DHT22;56075;51.264;7.150;2024-03-02T03:31:12;8.60;99.90
20833;DHT22;56075;51.264;7.150;2024-03-02T03:33:43;8.70;99.90
20833;DHT22;56075;51.264;7.150;2024-03-02T03:36:14;8.60;99.90
20833;DHT22;56075;51.264;7.150;2024-03-02T03:38:45;8.60;99.90
20833;DHT22;56075;51.264;7.150;2024-03-02T03:43:48;8.40;99.90
20833;DHT22;56075;51.264;7.150;2024-03-02T03:46:19;8.60;99.90
20833;DHT22;56075;51.264;7.150;2024-03-02T03:48:50;8.70;99.90
20833;DHT22;56075;51.264;7.150;2024-03-02T03:51:21;8.90;99.90
20833;DHT22;56075;51.264;7.150;2024-03-02T03:53:55;8.60;99.90
20833;DHT22;56075;51.264;7.150;2024-03-02T03:58:58;8.60;99.90
20833;DHT22;56075;51.264;7.150;2024-03-02T04:01:30;8.50;99.90
20833;DHT22;56075;51.264;7.150;2024-03-02T04:04:02;8.70;99.90
20833;DHT22;56075;51.264;7.150;2024-03-02T04:06:34;8.60;99.90
20833;DHT22;56075;51.264;7.150;2024-03-02T04:09:05;8.50;99.90
20833;DHT22;56075;51.264;7.150;2024-03-02T04:11:36;8.60;99.90
20833;DHT22;56075;51.264;7.150;2024-03-02T04:14:07;8.60;99.90
20833;DHT22;56075;51.264;7.150;2024-03-02T04:16:38;8.60;99.90
20833;DHT22;56075;51.264;7.150;2024-03-02T04:19:10;8.50;99.90
20833;DHT22;56075;51.264;7.150;2024-03-02T04:21:41;8.60;99.90
20833;DHT22;56075;51.264;7.150;2024-03-02T04:24:12;8.60;99.90
20833;DHT22;56075;51.264;7.150;2024-03-02T04:26:43;8.10;99.90
20833;DHT22;56075;51.264;7.150;2024-03-02T04:29:14;8.30;99.90
20833;DHT22;56075;51.264;7.150;2024-03-02T04:31:45;8.50;99.90
20833;DHT22;56075;51.264;7.150;2024-03-02T04:34:17;8.30;99.90
20833;DHT22;56075;51.264;7.150;2024-03-02T04:36:48;8.30;99.90
20833;DHT22;56075;51.264;7.150;2024-03-02T04:39:19;8.30;99.90
20833;DHT22;56075;51.264;7.150;2024-03-02T04:46:53;8.10;99.90
20833;DHT22;56075;51.264;7.150;2024-03-02T04:49:24;7.60;99.90
20833;DHT22;56075;51.264;7.150;2024-03-02T04:51:56;8.00;99.90
20833;DHT22;56075;51.264;7.150;2024-03-02T04:56:59;7.90;99.90
20833;DHT22;56075;51.264;7.150;2024-03-02T04:59:30;7.80;99.90
20833;DHT22;56075;51.264;7.150;2024-03-02T05:07:05;7.80;99.90
20833;DHT22;56075;51.264;7.150;2024-03-02T05:09:36;7.40;99.90
20833;DHT22;56075;51.264;7.150;2024-03-02T05:12:08;7.80;99.90
20833;DHT22;56075;51.264;7.150;2024-03-02T05:14:48;7.70;99.90
20833;DHT22;56075;51.264;7.150;2024-03-02T05:17:19;7.50;99.90
20833;DHT22;56075;51.264;7.150;2024-03-02T05:22:22;7.60;99.90
20833;DHT22;56075;51.264;7.150;2024-03-02T05:27:24;7.60;99.90
20833;DHT22;56075;51.264;7.150;2024-03-02T05:29:55;7.60;99.90
20833;DHT22;56075;51.264;7.150;2024-03-02T05:32:27;7.50;99.90
20833;DHT22;56075;51.264;7.150;2024-03-02T05:34:58;7.60;99.90
20833;DHT22;56075;51.264;7.150;2024-03-02T05:37:29;7.40;99.90
20833;DHT22;56075;51.264;7.150;2024-03-02T05:42:32;7.40;99.90
20833;DHT22;56075;51.264;7.150;2024-03-02T05:45:03;7.40;99.90
20833;DHT22;56075;51.264;7.150;2024-03-02T05:50:06;7.40;99.90
20833;DHT22;56075;51.264;7.150;2024-03-02T05:52:38;7.40;99.90
20833;DHT22;56075;51.264;7.150;2024-03-02T05:57:41;7.30;99.90
20833;DHT22;56075;51.264;7.150;2024-03-02T06:05:19;7.20;99.90
20833;DHT22;56075;51.264;7.150;2024-03-02T06:07:50;7.30;99.90
20833;DHT22;56075;51.264;7.150;2024-03-02T06:10:22;7.20;99.90
20833;DHT22;56075;51.264;7.150;2024-03-02T06:12:53;7.20;99.90
20833;DHT22;56075;51.264;7.150;2024-03-02T06:22:58;7.00;99.90
20833;DHT22;56075;51.264;7.150;2024-03-02T06:28:00;7.00;99.90
20833;DHT22;56075;51.264;7.150;2024-03-02T06:30:32;7.00;99.90
20833;DHT22;56075;51.264;7.150;2024-03-02T06:33:03;6.90;99.90
20833;DHT22;56075;51.264;7.150;2024-03-02T06:35:34;6.90;99.90
20833;DHT22;56075;51.264;7.150;2024-03-02T06:40:37;6.90;99.90
20833;DHT22;56075;51.264;7.150;2024-03-02T06:45:41;7.10;99.90
20833;DHT22;56075;51.264;7.150;2024-03-02T06:50:49;6.90;99.90
20833;DHT22;56075;51.264;7.150;2024-03-02T06:58:24;7.00;99.90
20833;DHT22;56075;51.264;7.150;2024-03-02T07:03:27;7.10;99.90
20833;DHT22;56075;51.264;7.150;2024-03-02T07:05:58;7.10;99.90
20833;DHT22;56075;51.264;7.150;2024-03-02T07:08:29;7.40;99.90
20833;DHT22;56075;51.264;7.150;2024-03-02T07:18:35;7.10;99.90
20833;DHT22;56075;51.264;7.150;2024-03-02T07:21:11;7.40;99.90
20833;DHT22;56075;51.264;7.150;2024-03-02T07:26:14;7.40;99.90
20833;DHT22;56075;51.264;7.150;2024-03-02T07:36:24;7.50;99.90
20833;DHT22;56075;51.264;7.150;2024-03-02T07:41:27;7.80;99.90
20833;DHT22;56075;51.264;7.150;2024-03-02T07:43:58;7.70;99.90
20833;DHT22;56075;51.264;7.150;2024-03-02T07:46:29;7.70;99.90
20833;DHT22;56075;51.264;7.150;2024-03-02T07:51:32;7.90;99.90
20833;DHT22;56075;51.264;7.150;2024-03-02T07:54:03;7.80;99.90
20833;DHT22;56075;51.264;7.150;2024-03-02T07:56:35;7.80;99.90
20833;DHT22;56075;51.264;7.150;2024-03-02T07:59:06;7.60;99.90
20833;DHT22;56075;51.264;7.150;2024-03-02T08:01:38;8.10;99.90
20833;DHT22;56075;51.264;7.150;2024-03-02T08:04:09;8.10;99.90
20833;DHT22;56075;51.264;7.150;2024-03-02T08:06:40;8.40;99.90
20833;DHT22;56075;51.264;7.150;2024-03-02T08:09:11;8.30;99.90
20833;DHT22;56075;51.264;7.150;2024-03-02T08:11:42;8.20;99.90
20833;DHT22;56075;51.264;7.150;2024-03-02T08:14:13;8.30;99.90
20833;DHT22;56075;51.264;7.150;2024-03-02T08:16:45;8.30;99.90
20833;DHT22;56075;51.264;7.150;2024-03-02T08:19:16;8.30;99.90
20833;DHT22;56075;51.264;7.150;2024-03-02T08:21:47;8.60;99.90
20833;DHT22;56075;51.264;7.150;2024-03-02T08:24:19;8.60;99.90
20833;DHT22;56075;51.264;7.150;2024-03-02T08:26:50;8.50;99.90
20833;DHT22;56075;51.264;7.150;2024-03-02T08:29:21;8.50;99.90
20833;DHT22;56075;51.264;7.150;2024-03-02T08:31:53;8.80;99.90
20833;DHT22;56075;51.264;7.150;2024-03-02T08:34:24;8.80;99.90
20833;DHT22;56075;51.264;7.150;2024-03-02T08:36:55;8.80;99.90
20833;DHT22;56075;51.264;7.150;2024-03-02T08:39:26;8.90;99.90
20833;DHT22;56075;51.264;7.150;2024-03-02T08:41:57;9.10;99.90
20833;DHT22;56075;51.264;7.150;2024-03-02T08:44:29;8.90;99.90
20833;DHT22;56075;51.264;7.150;2024-03-02T08:49:31;8.70;99.90
20833;DHT22;56075;51.264;7.150;2024-03-02T08:52:02;9.10;99.90
20833;DHT22;56075;51.264;7.150;2024-03-02T08:54:33;9.10;99.90
20833;DHT22;56075;51.264;7.150;2024-03-02T08:57:06;9.10;99.90
20833;DHT22;56075;51.264;7.150;2024-03-02T08:59:38;9.20;99.90
20833;DHT22;56075;51.264;7.150;2024-03-02T09:02:10;9.20;99.90
20833;DHT22;56075;51.264;7.150;2024-03-02T09:04:41;9.40;99.90
20833;DHT22;56075;51.264;7.150;2024-03-02T09:07:12;9.20;99.90
20833;DHT22;56075;51.264;7.150;2024-03-02T09:09:43;9.30;99.90
20833;DHT22;56075;51.264;7.150;2024-03-02T09:12:15;9.50;99.90
20833;DHT22;56075;51.264;7.150;2024-03-02T09:14:46;9.50;99.90
20833;DHT22;56075;51.264;7.150;2024-03-02T09:17:17;9.40;99.90
20833;DHT22;56075;51.264;7.150;2024-03-02T09:22:23;9.60;99.90
20833;DHT22;56075;51.264;7.150;2024-03-02T09:24:54;9.70;99.90
20833;DHT22;56075;51.264;7.150;2024-03-02T09:27:25;9.70;99.90
20833;DHT22;56075;51.264;7.150;2024-03-02T09:29:56;9.80;99.90
20833;DHT22;56075;51.264;7.150;2024-03-02T09:32:28;9.60;99.90
20833;DHT22;56075;51.264;7.150;2024-03-02T09:34:59;9.90;99.90
20833;DHT22;56075;51.264;7.150;2024-03-02T09:37:30;9.80;99.90
20833;DHT22;56075;51.264;7.150;2024-03-02T09:40:02;9.90;99.90
20833;DHT22;56075;51.264;7.150;2024-03-02T09:42:33;9.80;99.90
20833;DHT22;56075;51.264;7.150;2024-03-02T09:45:05;9.90;99.90
20833;DHT22;56075;51.264;7.150;2024-03-02T09:47:37;10.00;99.90
20833;DHT22;56075;51.264;7.150;2024-03-02T09:50:08;10.00;99.90
20833;DHT22;56075;51.264;7.150;2024-03-02T09:52:41;10.00;99.90
20833;DHT22;56075;51.264;7.150;2024-03-02T09:55:13;10.00;99.90
20833;DHT22;56075;51.264;7.150;2024-03-02T09:57:45;10.20;99.90
20833;DHT22;56075;51.264;7.150;2024-03-02T10:00:17;10.10;99.90
20833;DHT22;56075;51.264;7.150;2024-03-02T10:02:48;10.30;99.90
20833;DHT22;56075;51.264;7.150;2024-03-02T10:05:26;10.10;99.90
20833;DHT22;56075;51.264;7.150;2024-03-02T10:08:02;10.40;99.90
20833;DHT22;56075;51.264;7.150;2024-03-02T10:10:38;10.30;99.90
20833;DHT22;56075;51.264;7.150;2024-03-02T10:13:13;10.80;99.90
20833;DHT22;56075;51.264;7.150;2024-03-02T10:15:44;10.60;99.90
20833;DHT22;56075;51.264;7.150;2024-03-02T10:18:26;10.70;99.90
20833;DHT22;56075;51.264;7.150;2024-03-02T10:21:13;10.80;99.90
20833;DHT22;56075;51.264;7.150;2024-03-02T10:23:44;10.70;99.90
20833;DHT22;56075;51.264;7.150;2024-03-02T10:26:18;12.70;99.90
20833;DHT22;56075;51.264;7.150;2024-03-02T10:28:50;11.00;99.90
20833;DHT22;56075;51.264;7.150;2024-03-02T10:31:23;11.10;99.90
20833;DHT22;56075;51.264;7.150;2024-03-02T10:33:59;11.10;99.90
20833;DHT22;56075;51.264;7.150;2024-03-02T10:36:31;11.00;99.90
20833;DHT22;56075;51.264;7.150;2024-03-02T10:39:05;11.20;99.90
20833;DHT22;56075;51.264;7.150;2024-03-02T10:41:38;11.20;99.90
20833;DHT22;56075;51.264;7.150;2024-03-02T10:44:09;12.10;99.90
20833;DHT22;56075;51.264;7.150;2024-03-02T10:46:41;12.50;99.90
20833;DHT22;56075;51.264;7.150;2024-03-02T10:49:12;11.20;99.90
20833;DHT22;56075;51.264;7.150;2024-03-02T10:51:43;11.20;99.90
20833;DHT22;56075;51.264;7.150;2024-03-02T10:54:14;12.30;99.90
20833;DHT22;56075;51.264;7.150;2024-03-02T10:56:46;11.40;99.90
20833;DHT22;56075;51.264;7.150;2024-03-02T10:59:33;13.50;99.90
20833;DHT22;56075;51.264;7.150;2024-03-02T11:02:05;11.60;99.90
20833;DHT22;56075;51.264;7.150;2024-03-02T11:04:40;12.40;99.90
20833;DHT22;56075;51.264;7.150;2024-03-02T11:07:13;11.70;99.90
20833;DHT22;56075;51.264;7.150;2024-03-02T11:09:59;11.60;99.90
20833;DHT22;56075;51.264;7.150;2024-03-02T11:12:36;11.90;99.90
20833;DHT22;56075;51.264;7.150;2024-03-02T11:15:17;13.30;99.90
20833;DHT22;56075;51.264;7.150;2024-03-02T11:17:49;14.00;99.90
20833;DHT22;56075;51.264;7.150;2024-03-02T11:20:21;11.90;99.90
20833;DHT22;56075;51.264;7.150;2024-03-02T11:22:52;12.10;99.90
20833;DHT22;56075;51.264;7.150;2024-03-02T11:25:25;12.10;99.90
20833;DHT22;56075;51.264;7.150;2024-03-02T11:28:00;13.90;99.90
20833;DHT22;56075;51.264;7.150;2024-03-02T11:33:07;12.40;99.90
20833;DHT22;56075;51.264;7.150;2024-03-02T11:35:41;14.00;99.90
20833;DHT22;56075;51.264;7.150;2024-03-02T11:38:19;12.50;99.90
20833;DHT22;56075;51.264;7.150;2024-03-02T11:40:50;13.00;99.90
20833;DHT22;56075;51.264;7.150;2024-03-02T11:43:21;14.40;99.90
20833;DHT22;56075;51.264;7.150;2024-03-02T11:45:58;12.60;99.90
20833;DHT22;56075;51.264;7.150;2024-03-02T11:48:30;12.60;99.90
20833;DHT22;56075;51.264;7.150;2024-03-02T11:51:01;12.70;99.90
20833;DHT22;56075;51.264;7.150;2024-03-02T11:53:33;12.90;99.90
20833;DHT22;56075;51.264;7.150;2024-03-02T11:56:06;13.40;99.90
20833;DHT22;56075;51.264;7.150;2024-03-02T11:58:40;13.10;99.90
20833;DHT22;56075;51.264;7.150;2024-03-02T12:01:12;13.20;99.90
20833;DHT22;56075;51.264;7.150;2024-03-02T12:03:44;14.70;99.90
20833;DHT22;56075;51.264;7.150;2024-03-02T12:06:17;14.20;99.90
20833;DHT22;56075;51.264;7.150;2024-03-02T12:08:52;14.00;99.90
20833;DHT22;56075;51.264;7.150;2024-03-02T12:11:24;13.60;99.90
20833;DHT22;56075;51.264;7.150;2024-03-02T12:13:55;13.20;99.90
20833;DHT22;56075;51.264;7.150;2024-03-02T12:16:28;14.90;99.90
20833;DHT22;56075;51.264;7.150;2024-03-02T12:18:59;13.60;99.90
20833;DHT22;56075;51.264;7.150;2024-03-02T12:21:30;13.90;99.90
20833;DHT22;56075;51.264;7.150;2024-03-02T12:24:02;13.40;99.90
20833;DHT22;56075;51.264;7.150;2024-03-02T12:26:33;13.60;99.90
20833;DHT22;56075;51.264;7.150;2024-03-02T12:29:04;13.70;99.90
20833;DHT22;56075;51.264;7.150;2024-03-02T12:31:36;13.70;99.90
20833;DHT22;56075;51.264;7.150;2024-03-02T12:34:08;13.70;99.90
20833;DHT22;56075;51.264;7.150;2024-03-02T12:36:39;15.00;99.90
20833;DHT22;56075;51.264;7.150;2024-03-02T12:39:12;14.20;99.90
20833;DHT22;56075;51.264;7.150;2024-03-02T12:41:44;15.10;99.90
20833;DHT22;56075;51.264;7.150;2024-03-02T12:44:16;15.10;99.90
20833;DHT22;56075;51.264;7.150;2024-03-02T12:46:47;14.00;99.90
20833;DHT22;56075;51.264;7.150;2024-03-02T12:49:22;14.20;99.90
20833;DHT22;56075;51.264;7.150;2024-03-02T12:51:53;14.00;99.90
20833;DHT22;56075;51.264;7.150;2024-03-02T12:54:25;14.10;99.90
20833;DHT22;56075;51.264;7.150;2024-03-02T12:56:57;14.20;99.90
20833;DHT22;56075;51.264;7.150;2024-03-02T12:59:28;14.80;99.90
20833;DHT22;56075;51.264;7.150;2024-03-02T13:02:00;14.60;99.90
20833;DHT22;56075;51.264;7.150;2024-03-02T13:04:32;14.30;99.90
20833;DHT22;56075;51.264;7.150;2024-03-02T13:07:03;14.20;99.90
20833;DHT22;56075;51.264;7.150;2024-03-02T13:09:34;14.20;99.90
20833;DHT22;56075;51.264;7.150;2024-03-02T13:12:06;14.00;99.90
20833;DHT22;56075;51.264;7.150;2024-03-02T13:14:37;14.10;99.90
20833;DHT22;56075;51.264;7.150;2024-03-02T13:17:09;14.30;99.90
20833;DHT22;56075;51.264;7.150;2024-03-02T13:19:57;14.00;99.90
20833;DHT22;56075;51.264;7.150;2024-03-02T13:22:28;14.20;99.90
20833;DHT22;56075;51.264;7.150;2024-03-02T13:24:59;14.60;99.90
20833;DHT22;56075;51.264;7.150;2024-03-02T13:27:32;14.10;99.90
20833;DHT22;56075;51.264;7.150;2024-03-02T13:30:04;14.40;99.90
20833;DHT22;56075;51.264;7.150;2024-03-02T13:32:36;14.10;99.90
20833;DHT22;56075;51.264;7.150;2024-03-02T13:35:07;14.10;99.90
20833;DHT22;56075;51.264;7.150;2024-03-02T13:37:42;14.20;99.90
20833;DHT22;56075;51.264;7.150;2024-03-02T13:40:13;14.10;99.90
20833;DHT22;56075;51.264;7.150;2024-03-02T13:42:49;14.20;99.90
20833;DHT22;56075;51.264;7.150;2024-03-02T13:45:21;14.20;99.90
20833;DHT22;56075;51.264;7.150;2024-03-02T13:47:52;14.30;99.90
20833;DHT22;56075;51.264;7.150;2024-03-02T13:50:24;14.40;99.90
20833;DHT22;56075;51.264;7.150;2024-03-02T13:52:55;14.50;99.90
20833;DHT22;56075;51.264;7.150;2024-03-02T13:55:27;14.80;99.90
20833;DHT22;56075;51.264;7.150;2024-03-02T13:57:59;14.80;99.90
20833;DHT22;56075;51.264;7.150;2024-03-02T14:00:30;15.20;99.90
20833;DHT22;56075;51.264;7.150;2024-03-02T14:03:02;14.90;99.90
20833;DHT22;56075;51.264;7.150;2024-03-02T14:05:34;15.30;99.90
20833;DHT22;56075;51.264;7.150;2024-03-02T14:08:05;15.50;99.90
20833;DHT22;56075;51.264;7.150;2024-03-02T14:10:36;15.30;99.90
20833;DHT22;56075;51.264;7.150;2024-03-02T14:13:07;15.40;99.90
20833;DHT22;56075;51.264;7.150;2024-03-02T14:15:38;15.60;99.90
20833;DHT22;56075;51.264;7.150;2024-03-02T14:18:10;15.40;99.90
20833;DHT22;56075;51.264;7.150;2024-03-02T14:20:42;15.40;99.90
20833;DHT22;56075;51.264;7.150;2024-03-02T14:23:13;15.30;99.90
20833;DHT22;56075;51.264;7.150;2024-03-02T14:25:45;15.50;99.90
20833;DHT22;56075;51.264;7.150;2024-03-02T14:28:16;16.20;99.90
20833;DHT22;56075;51.264;7.150;2024-03-02T14:30:47;15.40;99.90
20833;DHT22;56075;51.264;7.150;2024-03-02T14:33:18;15.70;99.90
20833;DHT22;56075;51.264;7.150;2024-03-02T14:35:49;15.40;99.90
20833;DHT22;56075;51.264;7.150;2024-03-02T14:38:20;15.90;99.90
20833;DHT22;56075;51.264;7.150;2024-03-02T14:40:51;15.80;99.90
20833;DHT22;56075;51.264;7.150;2024-03-02T14:43:23;16.00;99.90
20833;DHT22;56075;51.264;7.150;2024-03-02T14:45:54;16.30;99.90
20833;DHT22;56075;51.264;7.150;2024-03-02T14:48:25;16.00;99.90
20833;DHT22;56075;51.264;7.150;2024-03-02T14:50:57;16.20;99.90
20833;DHT22;56075;51.264;7.150;2024-03-02T14:53:28;16.10;99.90
20833;DHT22;56075;51.264;7.150;2024-03-02T14:55:59;15.90;99.90
20833;DHT22;56075;51.264;7.150;2024-03-02T14:58:30;15.70;99.90
20833;DHT22;56075;51.264;7.150;2024-03-02T15:01:02;16.00;99.90
20833;DHT22;56075;51.264;7.150;2024-03-02T15:03:34;15.60;99.90
20833;DHT22;56075;51.264;7.150;2024-03-02T15:06:06;16.30;99.90
20833;DHT22;56075;51.264;7.150;2024-03-02T15:08:38;17.10;99.90
20833;DHT22;56075;51.264;7.150;2024-03-02T15:11:12;15.60;99.90
20833;DHT22;56075;51.264;7.150;2024-03-02T15:13:43;15.80;99.90
20833;DHT22;56075;51.264;7.150;2024-03-02T15:16:14;16.30;99.90
20833;DHT22;56075;51.264;7.150;2024-03-02T15:18:46;15.70;99.90
20833;DHT22;56075;51.264;7.150;2024-03-02T15:21:17;15.50;99.90
20833;DHT22;56075;51.264;7.150;2024-03-02T15:23:50;15.60;99.90
20833;DHT22;56075;51.264;7.150;2024-03-02T15:26:22;15.90;99.90
20833;DHT22;56075;51.264;7.150;2024-03-02T15:28:53;15.50;99.90
20833;DHT22;56075;51.264;7.150;2024-03-02T15:31:26;15.30;99.90
20833;DHT22;56075;51.264;7.150;2024-03-02T15:33:57;15.20;99.90
20833;DHT22;56075;51.264;7.150;2024-03-02T15:36:29;15.00;99.90
20833;DHT22;56075;51.264;7.150;2024-03-02T15:39:00;14.90;99.90
20833;DHT22;56075;51.264;7.150;2024-03-02T15:41:32;16.00;99.90
20833;DHT22;56075;51.264;7.150;2024-03-02T15:44:04;15.30;99.90
20833;DHT22;56075;51.264;7.150;2024-03-02T15:46:35;15.00;99.90
20833;DHT22;56075;51.264;7.150;2024-03-02T15:49:06;15.00;99.90
20833;DHT22;56075;51.264;7.150;2024-03-02T15:51:39;15.10;99.90
20833;DHT22;56075;51.264;7.150;2024-03-02T15:54:14;14.90;99.90
20833;DHT22;56075;51.264;7.150;2024-03-02T15:56:46;15.10;99.90
20833;DHT22;56075;51.264;7.150;2024-03-02T15:59:17;15.00;99.90
20833;DHT22;56075;51.264;7.150;2024-03-02T16:01:48;15.20;99.90
20833;DHT22;56075;51.264;7.150;2024-03-02T16:04:19;15.50;99.90
20833;DHT22;56075;51.264;7.150;2024-03-02T16:06:50;14.70;99.90
20833;DHT22;56075;51.264;7.150;2024-03-02T16:09:22;14.80;99.90
20833;DHT22;56075;51.264;7.150;2024-03-02T16:11:53;15.70;99.90
20833;DHT22;56075;51.264;7.150;2024-03-02T16:14:24;13.70;99.90
20833;DHT22;56075;51.264;7.150;2024-03-02T16:16:55;15.20;99.90
20833;DHT22;56075;51.264;7.150;2024-03-02T16:19:26;14.10;99.90
20833;DHT22;56075;51.264;7.150;2024-03-02T16:21:57;14.20;99.90
20833;DHT22;56075;51.264;7.150;2024-03-02T16:24:29;14.10;99.90
20833;DHT22;56075;51.264;7.150;2024-03-02T16:27:00;14.10;99.90
20833;DHT22;56075;51.264;7.150;2024-03-02T16:29:31;14.00;99.90
20833;DHT22;56075;51.264;7.150;2024-03-02T16:32:03;13.70;99.90
20833;DHT22;56075;51.264;7.150;2024-03-02T16:34:35;13.70;99.90
20833;DHT22;56075;51.264;7.150;2024-03-02T16:37:06;13.70;99.90
20833;DHT22;56075;51.264;7.150;2024-03-02T16:39:37;15.50;99.90
20833;DHT22;56075;51.264;7.150;2024-03-02T16:42:08;13.70;99.90
20833;DHT22;56075;51.264;7.150;2024-03-02T16:44:40;13.50;99.90
20833;DHT22;56075;51.264;7.150;2024-03-02T16:47:11;13.60;99.90
20833;DHT22;56075;51.264;7.150;2024-03-02T16:49:45;13.90;99.90
20833;DHT22;56075;51.264;7.150;2024-03-02T16:52:16;13.80;99.90
20833;DHT22;56075;51.264;7.150;2024-03-02T16:54:51;13.30;99.90
20833;DHT22;56075;51.264;7.150;2024-03-02T16:57:22;13.60;99.90
20833;DHT22;56075;51.264;7.150;2024-03-02T16:59:53;13.20;99.90
20833;DHT22;56075;51.264;7.150;2024-03-02T17:02:24;13.10;99.90
20833;DHT22;56075;51.264;7.150;2024-03-02T17:04:56;13.20;99.90
20833;DHT22;56075;51.264;7.150;2024-03-02T17:07:27;12.80;99.90
20833;DHT22;56075;51.264;7.150;2024-03-02T17:10:00;13.10;99.90
20833;DHT22;56075;51.264;7.150;2024-03-02T17:12:31;12.90;99.90
20833;DHT22;56075;51.264;7.150;2024-03-02T17:15:03;13.90;99.90
20833;DHT22;56075;51.264;7.150;2024-03-02T17:17:35;12.70;99.90
20833;DHT22;56075;51.264;7.150;2024-03-02T17:20:06;12.70;99.90
20833;DHT22;56075;51.264;7.150;2024-03-02T17:22:42;12.50;99.90
20833;DHT22;56075;51.264;7.150;2024-03-02T17:25:13;13.50;99.90
20833;DHT22;56075;51.264;7.150;2024-03-02T17:27:45;12.60;99.90
20833;DHT22;56075;51.264;7.150;2024-03-02T17:30:16;13.50;99.90
20833;DHT22;56075;51.264;7.150;2024-03-02T17:32:47;12.70;99.90
20833;DHT22;56075;51.264;7.150;2024-03-02T17:35:18;13.10;99.90
20833;DHT22;56075;51.264;7.150;2024-03-02T17:37:49;12.60;99.90
20833;DHT22;56075;51.264;7.150;2024-03-02T17:40:22;12.70;99.90
20833;DHT22;56075;51.264;7.150;2024-03-02T17:42:53;13.40;99.90
20833;DHT22;56075;51.264;7.150;2024-03-02T17:45:24;12.60;99.90
20833;DHT22;56075;51.264;7.150;2024-03-02T17:47:55;13.60;99.90
20833;DHT22;56075;51.264;7.150;2024-03-02T17:50:27;12.50;99.90
20833;DHT22;56075;51.264;7.150;2024-03-02T17:52:59;13.40;99.90
20833;DHT22;56075;51.264;7.150;2024-03-02T17:55:30;12.90;99.90
20833;DHT22;56075;51.264;7.150;2024-03-02T17:58:01;12.80;99.90
20833;DHT22;56075;51.264;7.150;2024-03-02T18:00:32;12.70;99.90
20833;DHT22;56075;51.264;7.150;2024-03-02T18:03:05;14.30;99.90
20833;DHT22;56075;51.264;7.150;2024-03-02T18:05:39;12.60;99.90
20833;DHT22;56075;51.264;7.150;2024-03-02T18:08:10;12.70;99.90
20833;DHT22;56075;51.264;7.150;2024-03-02T18:10:41;14.00;99.90
20833;DHT22;56075;51.264;7.150;2024-03-02T18:13:12;12.80;99.90
20833;DHT22;56075;51.264;7.150;2024-03-02T18:15:43;12.80;99.90